Time;durP1;ratioP1;P1;durP2;ratioP2;P2;SDS_P1;SDS_P2;PMS_P1;PMS_P2;Temp;Humidity;BMP_temperature;BMP_pressure;BME280_temperature;BME280_humidity;BME280_pressure;Samples;Min_cycle;Max_cycle;Signal;HPM_P1;HPM_P2
2023/01/08 00:04:18;;;;;;;49.70;11.90;;;7.00;99.90;;;4.89;100.00;100380.19;10486959;28;20065;-81
2023/01/08 00:09:21;;;;;;;54.37;12.70;;;7.10;99.90;;;4.88;100.00;100379.34;10494631;28;20079;-81
2023/01/08 00:14:24;;;;;;;48.90;12.43;;;7.10;99.90;;;4.89;100.00;100381.00;10530169;28;20099;-81
2023/01/08 00:19:27;;;;;;;39.27;12.27;;;7.10;99.90;;;4.91;100.00;100365.91;10522250;28;20060;-81
2023/01/08 00:24:30;;;;;;;39.97;11.43;;;7.10;99.90;;;4.96;100.00;100376.06;10560704;28;20093;-81
2023/01/08 00:29:33;;;;;;;35.83;12.00;;;7.10;99.90;;;4.96;100.00;100365.53;10496646;28;20061;-81
2023/01/08 00:34:36;;;;;;;54.67;15.03;;;7.20;99.90;;;4.92;100.00;100343.03;10519605;28;20056;-81
2023/01/08 00:39:39;;;;;;;54.77;13.90;;;7.10;99.90;;;4.92;100.00;100354.44;10552409;28;20060;-81
2023/01/08 00:44:42;;;;;;;49.87;13.00;;;7.10;99.90;;;4.95;100.00;100345.44;10550734;28;20056;-81
2023/01/08 00:49:46;;;;;;;44.27;13.20;;;7.20;99.90;;;4.97;100.00;100351.41;10539427;28;20417;-81
2023/01/08 00:54:49;;;;;;;44.63;12.93;;;7.20;99.90;;;4.98;100.00;100359.19;10545706;28;20056;-81
2023/01/08 00:59:52;;;;;;;43.20;12.83;;;7.20;99.90;;;4.99;100.00;100366.13;10540114;28;20151;-81
2023/01/08 01:04:55;;;;;;;70.17;15.87;;;7.20;99.90;;;4.99;100.00;100358.22;10549286;28;20412;-81
2023/01/08 01:09:58;;;;;;;58.13;12.70;;;7.20;99.90;;;4.98;100.00;100358.38;10540964;28;20078;-80
2023/01/08 01:15:00;;;;;;;63.93;14.70;;;7.20;99.90;;;4.98;100.00;100353.94;10531484;28;20586;-81
2023/01/08 01:20:06;;;;;;;51.00;12.53;;;7.20;99.90;;;4.98;100.00;100351.28;10522390;28;20508;-81
2023/01/08 01:25:10;;;;;;;55.30;13.00;;;7.20;99.90;;;4.98;100.00;100351.28;10556853;28;20063;-81
2023/01/08 01:30:13;;;;;;;54.03;14.93;;;7.20;99.90;;;4.98;100.00;100338.13;10542997;28;20151;-81
2023/01/08 01:35:16;;;;;;;51.10;13.93;;;7.20;99.90;;;4.95;100.00;100346.28;10536814;28;20056;-81
2023/01/08 01:40:19;;;;;;;44.77;13.03;;;7.10;99.90;;;4.95;100.00;100333.09;10542377;28;20056;-81
2023/01/08 01:45:26;;;;;;;57.53;13.77;;;7.20;99.90;;;4.98;100.00;100322.31;10528989;28;20112;-81
2023/01/08 01:50:43;;;;;;;44.43;13.20;;;7.20;99.90;;;4.97;100.00;100318.00;10531547;28;20071;-81
2023/01/08 01:55:47;;;;;;;49.70;14.17;;;7.20;99.90;;;4.99;100.00;100308.19;10533597;28;20505;-81
2023/01/08 02:00:53;;;;;;;59.17;15.23;;;7.20;99.90;;;4.99;100.00;100299.44;10541967;28;20074;-81
2023/01/08 02:06:05;;;;;;;60.83;15.30;;;7.20;99.90;;;4.97;100.00;100285.56;10515434;28;20084;-81
2023/01/08 02:12:17;;;;;;;56.53;13.80;;;7.10;99.90;;;4.96;100.00;100292.63;10528010;28;20060;-81
2023/01/08 02:17:30;;;;;;;66.97;13.93;;;7.20;99.90;;;4.98;100.00;100282.00;10523096;28;20063;-81
2023/01/08 02:23:10;;;;;;;60.87;14.37;;;7.10;99.90;;;4.95;100.00;100283.06;10543522;27;20060;-81
2023/01/08 02:28:14;;;;;;;49.43;14.37;;;7.20;99.90;;;4.95;100.00;100274.34;10576750;28;20122;-82
2023/01/08 02:33:17;;;;;;;53.07;15.07;;;7.10;99.90;;;4.96;100.00;100266.28;10550899;28;20587;-81
2023/01/08 02:38:22;;;;;;;49.63;14.67;;;7.10;99.90;;;4.94;100.00;100268.22;10536599;28;20080;-81
2023/01/08 02:43:45;;;;;;;53.70;14.23;;;7.20;99.90;;;4.99;100.00;100273.94;10537861;28;20063;-81
2023/01/08 02:49:00;;;;;;;53.10;14.80;;;7.20;99.90;;;5.00;100.00;100265.06;10539868;28;20764;-82
2023/01/08 02:54:12;;;;;;;57.37;15.30;;;7.20;99.90;;;5.04;100.00;100276.19;10541865;28;20513;-81
2023/01/08 02:59:17;;;;;;;44.55;14.45;;;7.30;99.90;;;5.05;100.00;100259.44;10520620;28;20484;-81
2023/01/08 03:04:23;;;;;;;42.57;12.87;;;7.30;99.90;;;5.05;100.00;100252.34;10537893;28;20059;-81
2023/01/08 03:09:26;;;;;;;34.17;11.87;;;7.30;99.90;;;5.08;100.00;100254.72;10515152;28;20065;-82
2023/01/08 03:15:03;;;;;;;47.77;13.20;;;7.30;99.90;;;5.08;100.00;100244.19;10547951;28;20087;-81
2023/01/08 03:20:12;;;;;;;45.67;14.20;;;7.30;99.90;;;5.08;100.00;100243.34;10546323;28;20082;-79
2023/01/08 03:25:19;;;;;;;49.73;15.50;;;7.30;99.90;;;5.09;100.00;100239.75;10558813;28;20099;-82
2023/01/08 03:30:23;;;;;;;48.53;13.53;;;7.30;99.90;;;5.08;100.00;100232.81;10551831;28;20198;-83
2023/01/08 03:35:28;;;;;;;34.27;11.10;;;7.30;99.90;;;5.09;100.00;100224.75;10522458;28;20144;-80
2023/01/08 03:40:43;;;;;;;47.57;13.47;;;7.40;99.90;;;5.12;100.00;100217.59;10524871;28;20060;-80
2023/01/08 03:45:58;;;;;;;42.60;17.00;;;7.30;99.90;;;5.13;100.00;100219.25;10535245;28;20067;-82
2023/01/08 03:51:01;;;;;;;35.80;12.07;;;7.40;99.90;;;5.12;100.00;100218.41;10539308;28;20592;-82
2023/01/08 03:56:04;;;;;;;33.60;12.47;;;7.30;99.90;;;5.15;100.00;100227.84;10555031;28;20051;-82
2023/01/08 04:01:07;;;;;;;29.50;11.57;;;7.40;99.90;;;5.15;100.00;100218.13;10560625;28;20060;-82
2023/01/08 04:06:10;;;;;;;42.93;13.17;;;7.40;99.90;;;5.13;100.00;100206.09;10541374;28;20423;-82
2023/01/08 04:11:14;;;;;;;39.17;14.00;;;7.40;99.90;;;5.13;100.00;100206.91;10503144;28;20060;-82
2023/01/08 04:16:16;;;;;;;37.40;15.10;;;7.40;99.90;;;5.15;100.00;100206.78;10520819;28;20057;-82
2023/01/08 04:21:20;;;;;;;36.00;13.33;;;7.40;99.90;;;5.16;100.00;100208.44;10541757;28;20060;-82
2023/01/08 04:26:23;;;;;;;48.50;15.13;;;7.40;99.90;;;5.14;100.00;100200.66;10534506;28;20418;-82
2023/01/08 04:31:25;;;;;;;35.37;14.27;;;7.40;99.90;;;5.17;100.00;100210.97;10521759;28;20063;-82
2023/01/08 04:36:29;;;;;;;45.17;15.33;;;7.40;99.90;;;5.17;100.00;100207.50;10552661;28;20144;-82
2023/01/08 04:41:32;;;;;;;38.73;14.33;;;7.40;99.90;;;5.15;100.00;100210.25;10545552;28;20059;-82
2023/01/08 04:46:35;;;;;;;41.57;15.63;;;7.40;99.90;;;5.10;100.00;100208.03;10551064;28;20076;-82
2023/01/08 04:51:38;;;;;;;37.00;15.67;;;7.40;99.90;;;5.13;100.00;100219.25;10534360;28;20056;-82
2023/01/08 04:56:42;;;;;;;36.03;13.60;;;7.40;99.90;;;5.10;100.00;100218.56;10548151;28;20056;-82
2023/01/08 05:01:45;;;;;;;31.87;12.80;;;7.40;99.90;;;5.12;100.00;100214.94;10535370;28;20059;-81
2023/01/08 05:06:48;;;;;;;38.83;13.63;;;7.40;99.90;;;5.13;100.00;100206.91;10527225;28;20096;-82
2023/01/08 05:11:51;;;;;;;29.00;12.53;;;7.40;99.90;;;5.12;100.00;100207.06;10514518;28;20100;-82
2023/01/08 05:16:54;;;;;;;31.10;12.73;;;7.40;99.90;;;5.14;100.00;100198.03;10547832;28;20520;-81
2023/01/08 05:21:57;;;;;;;31.80;12.50;;;7.40;99.90;;;5.15;100.00;100198.88;10530704;28;20402;-82
2023/01/08 05:27:00;;;;;;;33.40;13.00;;;7.40;99.90;;;5.13;100.00;100182.38;10511753;28;20067;-82
2023/01/08 05:32:12;;;;;;;27.63;11.40;;;7.40;99.90;;;5.14;100.00;100200.66;10528450;28;20059;-82
2023/01/08 05:37:15;;;;;;;31.13;11.97;;;7.40;99.90;;;5.12;100.00;100183.34;10569424;28;20060;-81
2023/01/08 05:42:18;;;;;;;27.60;11.50;;;7.40;99.90;;;5.11;100.00;100185.16;10529465;28;20084;-82
2023/01/08 05:47:21;;;;;;;32.47;14.07;;;7.40;99.90;;;5.12;100.00;100181.53;10548159;28;20063;-81
2023/01/08 05:52:25;;;;;;;29.70;14.27;;;7.40;99.90;;;5.11;100.00;100182.50;10518922;28;20513;-81
2023/01/08 05:57:29;;;;;;;32.23;12.37;;;7.40;99.90;;;5.09;100.00;100172.09;10527730;28;20055;-81
2023/01/08 06:02:32;;;;;;;33.37;13.90;;;7.40;99.90;;;5.12;100.00;100172.81;10528662;28;20143;-81
2023/01/08 06:07:34;;;;;;;26.00;12.77;;;7.30;99.90;;;5.10;100.00;100172.94;10568349;28;20128;-82
2023/01/08 06:12:38;;;;;;;36.83;14.77;;;7.40;99.90;;;5.09;100.00;100166.81;10536675;28;20056;-81
2023/01/08 06:17:41;;;;;;;23.20;10.87;;;7.30;99.90;;;5.07;100.00;100158.22;10544258;28;20217;-81
2023/01/08 06:22:44;;;;;;;25.60;10.67;;;7.30;99.90;;;5.08;100.00;100159.06;10536279;28;20051;-81
2023/01/08 06:27:51;;;;;;;28.37;12.50;;;7.30;99.90;;;5.08;100.00;100153.78;10549904;28;20147;-79
2023/01/08 06:32:59;;;;;;;36.17;14.60;;;7.30;99.90;;;5.07;100.00;100155.59;10538651;28;20091;-82
2023/01/08 06:38:02;;;;;;;27.80;12.23;;;7.30;99.90;;;5.08;100.00;100153.78;10516091;28;20060;-81
2023/01/08 06:43:05;;;;;;;21.90;11.07;;;7.30;99.90;;;5.06;100.00;100164.47;10544369;28;20109;-82
2023/01/08 06:48:08;;;;;;;28.10;11.87;;;7.30;99.90;;;5.03;100.00;100156.81;10542069;28;20056;-81
2023/01/08 06:53:11;;;;;;;37.63;13.27;;;7.30;99.90;;;5.05;100.00;100156.72;10518051;28;20067;-82
2023/01/08 06:58:15;;;;;;;28.97;13.07;;;7.30;99.90;;;5.04;100.00;100160.31;10547615;28;20060;-85
2023/01/08 07:03:19;;;;;;;38.13;15.37;;;7.30;99.90;;;5.01;100.00;100148.22;10516085;28;20179;-86
2023/01/08 07:08:22;;;;;;;27.57;12.70;;;7.30;99.90;;;5.03;100.00;100162.09;10537405;28;20139;-85
2023/01/08 07:13:25;;;;;;;27.17;12.77;;;7.30;99.90;;;5.05;100.00;100162.81;10522010;28;20095;-85
2023/01/08 07:18:28;;;;;;;34.80;15.70;;;7.30;99.90;;;5.04;100.00;100157.69;10533624;28;20087;-86
2023/01/08 07:23:33;;;;;;;36.17;15.67;;;7.30;99.90;;;5.03;100.00;100146.28;10566205;28;20154;-86
2023/01/08 07:28:36;;;;;;;34.03;15.30;;;7.30;99.90;;;5.05;100.00;100154.06;10520810;28;20056;-86
2023/01/08 07:33:39;;;;;;;36.90;16.43;;;7.30;99.90;;;5.07;100.00;100145.06;10549931;28;20061;-81
2023/01/08 07:38:42;;;;;;;39.93;17.67;;;7.30;99.90;;;5.10;100.00;100154.50;10532185;28;20064;-81
2023/01/08 07:43:47;;;;;;;32.40;15.43;;;7.30;99.90;;;5.12;100.00;100152.56;10549393;28;20060;-81
2023/01/08 07:48:50;;;;;;;37.97;14.37;;;7.40;99.90;;;5.15;100.00;100159.34;10571807;28;20463;-81
2023/01/08 07:53:55;;;;;;;30.97;13.20;;;7.40;99.90;;;5.14;100.00;100147.97;10549727;28;20079;-81
2023/01/08 07:58:58;;;;;;;36.07;15.23;;;7.40;99.90;;;5.16;100.00;100145.22;10535519;28;20549;-81
2023/01/08 08:04:01;;;;;;;29.93;14.03;;;7.40;99.90;;;5.14;100.00;100145.34;10524976;28;20060;-81
2023/01/08 08:09:04;;;;;;;28.90;13.33;;;7.40;99.90;;;5.15;100.00;100133.00;10546375;28;20048;-81
2023/01/08 08:14:07;;;;;;;33.47;13.07;;;7.30;99.90;;;5.13;100.00;100129.69;10541924;28;20064;-81
2023/01/08 08:19:11;;;;;;;38.77;14.17;;;7.30;99.90;;;5.16;100.00;100127.63;10525626;28;20056;-81
2023/01/08 08:24:15;;;;;;;35.50;16.10;;;7.40;99.90;;;5.18;100.00;100122.22;10542624;28;20067;-81
2023/01/08 08:29:17;;;;;;;35.70;15.63;;;7.40;99.90;;;5.20;100.00;100109.75;10568205;28;20063;-82
2023/01/08 08:34:21;;;;;;;28.47;14.07;;;7.40;99.90;;;5.22;100.00;100111.28;10561025;28;20060;-81
2023/01/08 08:39:24;;;;;;;27.47;13.73;;;7.40;99.90;;;5.23;100.00;100105.03;10494940;28;20513;-81
2023/01/08 08:44:27;;;;;;;51.63;23.50;;;7.50;99.90;;;5.27;100.00;100102.94;10512381;28;20428;-81
2023/01/08 08:49:30;;;;;;;31.80;15.03;;;7.50;99.90;;;5.22;100.00;100097.28;10527482;28;20461;-82
2023/01/08 08:54:32;;;;;;;31.97;14.57;;;7.50;99.90;;;5.27;100.00;100101.16;10538048;28;20143;-81
2023/01/08 08:59:36;;;;;;;33.87;15.30;;;7.50;99.90;;;5.29;100.00;100093.13;10569335;28;20060;-82
2023/01/08 09:04:39;;;;;;;27.13;12.60;;;7.50;99.90;;;5.33;100.00;100108.50;10524795;28;20092;-81
2023/01/08 09:09:42;;;;;;;31.70;14.17;;;7.50;99.90;;;5.35;100.00;100103.13;10550282;28;20061;-81
2023/01/08 09:14:45;;;;;;;28.60;14.80;;;7.50;99.90;;;5.37;100.00;100102.00;10520797;28;20056;-81
2023/01/08 09:19:48;;;;;;;29.47;13.73;;;7.60;99.90;;;5.43;100.00;100095.34;10526023;28;20057;-82
2023/01/08 09:24:51;;;;;;;35.00;17.07;;;7.60;99.90;;;5.44;100.00;100081.19;10522570;28;20493;-81
2023/01/08 09:29:54;;;;;;;36.40;16.77;;;7.70;99.90;;;5.49;100.00;100072.88;10535045;28;20141;-82
2023/01/08 09:34:57;;;;;;;32.17;14.77;;;7.70;99.90;;;5.53;100.00;100069.00;10503033;28;20064;-82
2023/01/08 09:40:00;;;;;;;39.27;17.00;;;7.70;99.90;;;5.59;100.00;100064.00;10541874;28;20093;-82
2023/01/08 09:45:11;;;;;;;31.87;14.90;;;7.80;99.90;;;5.63;100.00;100065.38;10537908;28;20063;-82
2023/01/08 09:50:14;;;;;;;25.67;13.47;;;7.80;99.90;;;5.71;100.00;100056.81;10543355;28;20067;-81
2023/01/08 09:55:19;;;;;;;27.07;13.43;;;7.90;99.90;;;5.76;100.00;100044.03;10513165;28;20056;-81
2023/01/08 10:00:28;;;;;;;28.90;14.50;;;8.00;99.90;;;5.88;100.00;100023.63;10522398;28;20426;-81
2023/01/08 10:05:32;;;;;;;33.40;15.97;;;8.10;99.90;;;5.99;100.00;100018.19;10555622;28;20056;-81
2023/01/08 10:10:35;;;;;;;30.30;13.97;;;8.20;99.90;;;6.07;100.00;100012.22;10522173;28;20064;-81
2023/01/08 10:15:40;;;;;;;56.43;25.87;;;8.30;99.90;;;6.16;100.00;100006.88;10514712;28;20095;-80
2023/01/08 10:20:43;;;;;;;29.87;14.93;;;8.40;99.90;;;6.18;100.00;99996.22;10516912;28;20068;-81
2023/01/08 10:25:51;;;;;;;29.07;14.50;;;8.40;99.90;;;6.19;100.00;99987.31;10534134;28;20057;-81
2023/01/08 10:31:13;;;;;;;30.20;14.47;;;8.40;99.90;;;6.17;100.00;99979.53;10520762;28;20064;-81
2023/01/08 10:36:23;;;;;;;22.47;12.00;;;8.40;99.90;;;6.19;100.00;99966.19;10531532;28;20067;-81
2023/01/08 10:41:26;;;;;;;27.70;13.80;;;8.40;99.90;;;6.12;100.00;99965.97;10510490;28;20408;-80
2023/01/08 10:46:49;;;;;;;25.07;13.27;;;8.40;99.90;;;6.12;100.00;99965.97;10541195;28;20437;-81
2023/01/08 10:51:53;;;;;;;27.13;13.50;;;8.30;99.90;;;6.20;100.00;99965.22;10521682;28;20397;-80
2023/01/08 10:56:57;;;;;;;23.97;12.40;;;8.40;99.90;;;6.28;100.00;99956.56;10565449;28;20216;-80
2023/01/08 11:02:03;;;;;;;23.87;11.73;;;8.40;99.90;;;6.40;100.00;99953.59;10528289;28;20060;-81
2023/01/08 11:07:15;;;;;;;22.30;11.27;;;8.60;99.90;;;6.58;100.00;99935.16;10512533;28;20407;-81
2023/01/08 11:12:34;;;;;;;22.30;11.48;;;8.70;99.90;;;6.84;100.00;99921.22;10501163;28;20772;-81
2023/01/08 11:17:37;;;;;;;27.43;12.90;;;9.00;99.90;;;7.10;100.00;99905.44;10539741;28;20413;-80
2023/01/08 11:22:40;;;;;;;23.23;12.30;;;9.20;99.90;;;7.24;100.00;99895.13;10524010;28;20060;-80
2023/01/08 11:27:45;;;;;;;24.47;12.47;;;9.40;99.90;;;7.41;100.00;99893.44;10527066;28;20064;-80
2023/01/08 11:33:01;;;;;;;22.67;11.70;;;9.60;99.90;;;7.51;100.00;99885.44;10517942;28;20067;-80
2023/01/08 11:38:07;;;;;;;26.27;14.00;;;9.70;99.90;;;7.46;99.23;99869.19;10549540;28;20413;-80
2023/01/08 11:43:30;;;;;;;32.93;15.97;;;9.60;99.90;;;7.48;98.64;99862.75;10527393;28;20680;-80
2023/01/08 11:49:12;;;;;;;23.43;13.23;;;9.70;99.90;;;7.53;97.73;99854.34;10557485;28;20063;-80
2023/01/08 11:54:30;;;;;;;23.23;12.32;;;9.70;99.90;;;7.57;97.06;99850.44;10562923;28;20056;-80
2023/01/08 11:59:57;;;;;;;25.57;13.40;;;9.70;99.90;;;7.57;96.29;99841.66;10555894;28;20063;-80
2023/01/08 12:05:40;;;;;;;27.67;14.87;;;9.80;99.90;;;7.52;95.66;99839.50;10538857;28;20080;-80
2023/01/08 12:11:44;;;;;;;29.17;15.20;;;9.70;99.90;;;7.51;95.25;99835.19;10557947;28;20065;-80
2023/01/08 12:17:36;;;;;;;26.20;14.23;;;9.70;99.90;;;7.56;95.24;99832.91;10469600;28;20056;-80
2023/01/08 12:23:18;;;;;;;34.95;19.35;;;9.70;99.90;;;7.58;94.43;99833.56;10577204;28;20122;-80
2023/01/08 12:28:42;;;;;;;35.30;19.37;;;9.80;99.90;;;7.62;94.44;99837.56;10548838;28;20066;-79
2023/01/08 12:34:10;;;;;;;83.07;43.97;;;9.80;99.90;;;7.65;93.97;99831.94;10515168;28;20067;-80
2023/01/08 12:39:24;;;;;;;33.87;21.43;;;9.90;99.90;;;7.66;93.77;99836.25;10553010;28;20060;-79
2023/01/08 12:44:29;;;;;;;29.73;16.93;;;9.80;99.90;;;7.63;93.37;99836.56;10550763;28;20086;-79
2023/01/08 12:49:41;;;;;;;30.07;14.87;;;9.80;99.90;;;7.46;92.27;99825.06;10553144;28;20059;-80
2023/01/08 12:54:49;;;;;;;29.67;14.73;;;9.70;99.90;;;7.24;92.45;99834.34;10533735;28;20064;-80
2023/01/08 13:00:07;;;;;;;32.30;15.47;;;9.50;99.90;;;7.06;93.20;99838.84;10517037;28;20064;-78
2023/01/08 13:05:18;;;;;;;33.33;16.07;;;9.30;99.90;;;6.92;93.58;99827.03;10546093;28;20052;-80
2023/01/08 13:10:39;;;;;;;27.83;14.17;;;9.10;99.90;;;6.80;93.98;99816.88;10527266;28;20500;-80
2023/01/08 13:15:42;;;;;;;32.25;14.45;;;9.00;99.90;;;6.67;94.37;99812.81;10549884;28;20520;-80
2023/01/08 13:20:57;;;;;;;36.13;16.33;;;8.90;99.90;;;6.57;94.68;99833.16;10524912;28;20064;-80
2023/01/08 13:26:03;;;;;;;27.00;14.00;;;8.70;99.90;;;6.43;94.73;99813.41;10517092;28;20067;-80
2023/01/08 13:31:18;;;;;;;37.13;18.10;;;8.60;99.90;;;6.33;95.35;99827.66;10524130;28;20056;-80
2023/01/08 13:36:26;;;;;;;37.93;18.30;;;8.50;99.90;;;6.23;95.62;99825.06;10558431;28;20062;-80
2023/01/08 13:41:43;;;;;;;40.87;19.73;;;8.40;99.90;;;6.14;96.09;99818.88;10531936;28;20087;-79
2023/01/08 13:47:14;;;;;;;37.47;19.43;;;8.30;99.90;;;6.08;96.53;99814.22;10547712;28;20059;-80
2023/01/08 13:52:46;;;;;;;38.80;18.70;;;8.30;99.90;;;6.00;96.87;99815.91;10528780;28;20048;-79
2023/01/08 13:58:06;;;;;;;;;;;8.20;99.90;;;5.94;97.42;99812.09;10531527;28;20052;-79
2023/01/08 14:03:33;;;;;;;31.90;16.93;;;8.10;99.90;;;5.90;97.83;99823.84;10520430;28;19928;-83
2023/01/08 14:08:54;;;;;;;30.03;16.10;;;8.10;99.90;;;5.92;98.29;99810.56;10508447;28;20064;-82
2023/01/08 14:14:27;;;;;;;25.23;12.80;;;8.10;99.90;;;5.91;98.55;99820.28;10534026;28;20392;-80
2023/01/08 14:19:30;;;;;;;38.17;19.80;;;8.10;99.90;;;5.90;98.80;99819.41;10452813;28;20053;-81
2023/01/08 14:24:34;;;;;;;35.50;19.80;;;8.10;99.90;;;5.90;99.08;99819.41;10509045;28;20061;-81
2023/01/08 14:29:44;;;;;;;53.13;26.03;;;8.10;99.90;;;5.89;99.21;99809.84;10470676;28;20096;-81
2023/01/08 14:34:50;;;;;;;43.97;21.90;;;8.10;99.90;;;5.92;99.54;99811.38;10500662;28;20061;-81
2023/01/08 14:39:53;;;;;;;32.23;18.47;;;8.10;99.90;;;5.90;99.40;99805.41;10513593;28;20497;-81
2023/01/08 14:45:13;;;;;;;37.97;20.00;;;8.10;99.90;;;5.91;99.48;99809.72;10465670;28;20086;-81
2023/01/08 14:50:36;;;;;;;36.47;20.03;;;8.10;99.90;;;5.89;99.95;99809.03;10493100;28;20057;-81
2023/01/08 14:55:45;;;;;;;29.50;17.37;;;8.10;99.90;;;5.87;100.00;99790.69;10483662;28;20084;-81
2023/01/08 15:01:00;;;;;;;46.23;23.57;;;8.10;99.90;;;5.89;100.00;99790.56;10480715;28;20053;-81
2023/01/08 15:06:06;;;;;;;51.83;26.27;;;8.10;99.90;;;5.90;100.00;99789.56;10441302;28;20523;-81
2023/01/08 15:11:23;;;;;;;49.13;23.40;;;8.10;99.90;;;5.92;100.00;99797.38;10501809;28;20797;-81
2023/01/08 15:16:28;;;;;;;47.87;22.80;;;8.10;99.90;;;5.95;100.00;99790.00;10477789;28;20057;-80
2023/01/08 15:21:33;;;;;;;40.03;19.70;;;8.10;99.90;;;5.96;100.00;99786.38;10474199;28;20176;-81
2023/01/08 15:26:41;;;;;;;50.53;24.10;;;8.10;99.90;;;5.99;100.00;99791.34;10456226;28;20053;-81
2023/01/08 15:31:48;;;;;;;43.30;21.73;;;8.20;99.90;;;5.96;100.00;99767.09;10452836;28;20465;-81
2023/01/08 15:36:51;;;;;;;30.70;17.37;;;8.20;99.90;;;6.00;100.00;99766.66;10423458;28;20062;-81
2023/01/08 15:47:16;;;;;;;27.50;15.70;;;8.20;99.90;;;6.01;100.00;99759.56;10472284;28;20146;-81
2023/01/08 15:52:28;;;;;;;41.60;20.97;;;8.20;99.90;;;5.98;100.00;99742.22;10473764;28;20058;-81
2023/01/08 15:57:31;;;;;;;31.07;16.10;;;8.20;99.90;;;6.00;100.00;99748.19;10459575;28;20061;-81
2023/01/08 16:02:46;;;;;;;35.73;18.67;;;8.20;99.90;;;6.02;100.00;99738.31;10440632;28;20146;-81
2023/01/08 16:07:49;;;;;;;36.17;19.77;;;8.20;99.90;;;6.01;100.00;99739.28;10432483;28;20068;-81
2023/01/08 16:12:53;;;;;;;50.60;24.17;;;8.20;99.90;;;6.01;100.00;99739.28;10433416;28;20053;-81
2023/01/08 16:17:58;;;;;;;65.63;30.23;;;8.20;99.90;;;6.01;100.00;99747.19;10466761;28;20399;-81
2023/01/08 16:23:01;;;;;;;75.00;34.73;;;8.20;99.90;;;5.99;100.00;99733.31;10434189;28;20136;-82
2023/01/08 16:28:04;;;;;;;72.70;32.03;;;8.20;99.90;;;5.97;100.00;99729.19;10439207;28;20500;-81
2023/01/08 16:33:07;;;;;;;50.83;25.57;;;8.20;99.90;;;6.00;100.00;99729.72;10440192;28;20061;-81
2023/01/08 16:38:12;;;;;;;48.50;23.57;;;8.20;99.90;;;5.99;100.00;99728.03;10461905;28;20065;-81
2023/01/08 16:43:15;;;;;;;50.73;25.77;;;8.20;99.90;;;5.99;100.00;99714.84;10431646;28;20065;-81
2023/01/08 16:48:20;;;;;;;54.43;26.93;;;8.20;99.90;;;5.99;100.00;99712.22;10439482;28;20060;-81
2023/01/08 16:53:24;;;;;;;35.33;20.53;;;8.20;99.90;;;5.97;100.00;99714.19;10406367;28;20149;-82
2023/01/08 16:58:28;;;;;;;40.43;21.80;;;8.20;99.90;;;6.00;100.00;99707.78;10445201;28;20117;-82
2023/01/08 17:03:31;;;;;;;41.77;22.23;;;8.20;99.90;;;6.00;100.00;99707.78;10426345;28;20085;-81
2023/01/08 17:08:38;;;;;;;45.83;20.10;;;8.20;99.90;;;6.02;100.00;99701.38;10472473;28;20153;-81
2023/01/08 17:13:42;;;;;;;58.17;27.90;;;8.20;99.90;;;5.99;100.00;99700.84;10447553;28;20092;-82
2023/01/08 17:18:45;;;;;;;54.90;27.30;;;8.20;99.90;;;6.01;100.00;99696.25;10427285;28;20061;-81
2023/01/08 17:23:49;;;;;;;52.23;25.33;;;8.20;99.90;;;6.02;100.00;99700.56;10420319;28;20066;-81
2023/01/08 17:28:53;;;;;;;51.57;24.97;;;8.20;99.90;;;6.03;100.00;99694.28;10445103;28;20503;-81
2023/01/08 17:33:57;;;;;;;47.10;25.03;;;8.30;99.90;;;6.01;100.00;99683.91;10461210;28;20180;-81
2023/01/08 17:39:00;;;;;;;48.80;24.90;;;8.30;99.90;;;6.05;100.00;99685.22;10439000;28;20061;-81
2023/01/08 17:44:05;;;;;;;46.13;23.17;;;8.30;99.90;;;6.06;100.00;99686.09;10465869;28;20058;-81
2023/01/08 17:49:11;;;;;;;41.87;23.10;;;8.30;99.90;;;6.08;100.00;99682.31;10472474;28;20063;-81
2023/01/08 17:54:16;;;;;;;50.33;26.20;;;8.30;99.90;;;6.07;100.00;99669.28;10458154;28;20529;-81
2023/01/08 17:59:20;;;;;;;39.17;21.80;;;8.30;99.90;;;6.11;100.00;99674.09;10437093;28;20065;-81
2023/01/08 18:04:23;;;;;;;43.10;23.07;;;8.30;99.90;;;6.10;100.00;99672.44;10423486;28;20067;-81
2023/01/08 18:09:26;;;;;;;41.03;21.47;;;8.30;99.90;;;6.08;100.00;99677.03;10439472;28;20093;-82
2023/01/08 18:14:29;;;;;;;35.90;19.50;;;8.30;99.90;;;6.07;100.00;99675.38;10458733;28;20510;-81
2023/01/08 18:19:32;;;;;;;43.70;22.20;;;8.30;99.90;;;6.11;100.00;99674.09;10471680;28;20149;-81
2023/01/08 18:24:36;;;;;;;38.80;20.47;;;8.30;99.90;;;6.07;100.00;99669.28;10443978;28;20088;-81
2023/01/08 18:29:39;;;;;;;38.03;19.83;;;8.30;99.90;;;6.10;100.00;99672.44;10448174;28;20507;-82
2023/01/08 18:34:44;;;;;;;44.00;23.07;;;8.30;99.90;;;6.13;100.00;99674.78;10435568;28;20059;-82
2023/01/08 18:39:47;;;;;;;45.13;22.80;;;8.30;99.90;;;6.17;100.00;99677.91;10438960;28;20066;-81
2023/01/08 18:44:53;;;;;;;48.47;23.40;;;8.30;99.90;;;6.19;100.00;99669.88;10451176;28;20065;-81
2023/01/08 18:50:02;;;;;;;50.63;24.80;;;8.40;99.90;;;6.17;100.00;99673.47;10428385;28;20127;-80
2023/01/08 18:55:05;;;;;;;37.83;19.10;;;8.40;99.90;;;6.19;100.00;99672.50;10434743;28;20062;-81
2023/01/08 19:00:11;;;;;;;36.97;20.20;;;8.40;99.90;;;6.14;100.00;99668.50;10424959;28;20058;-82
2023/01/08 19:05:14;;;;;;;42.23;20.77;;;8.40;99.90;;;6.14;100.00;99665.88;10450230;28;20296;-83
2023/01/08 19:10:17;;;;;;;41.10;20.83;;;8.40;99.90;;;6.12;100.00;99667.84;10461938;28;20061;-83
2023/01/08 19:15:20;;;;;;;52.80;25.37;;;8.40;99.90;;;6.11;100.00;99668.81;10448699;28;20411;-82
2023/01/08 19:20:23;;;;;;;49.73;25.03;;;8.30;99.90;;;6.10;100.00;99663.69;10461576;28;20419;-82
2023/01/08 19:25:28;;;;;;;53.83;26.20;;;8.30;99.90;;;6.11;100.00;99660.06;10459769;28;20431;-82
2023/01/08 19:30:31;;;;;;;46.53;24.73;;;8.30;99.90;;;6.11;100.00;99652.97;10458999;28;20400;-82
2023/01/08 19:35:40;;;;;;;45.53;24.60;;;8.30;99.90;;;6.08;100.00;99648.03;10477730;28;20057;-83
2023/01/08 19:40:43;;;;;;;67.40;32.37;;;8.30;99.90;;;6.11;100.00;99642.44;10449305;28;20156;-83
2023/01/08 19:45:46;;;;;;;71.43;33.23;;;8.30;99.90;;;6.10;100.00;99646.03;10464788;28;20570;-83
2023/01/08 19:50:49;;;;;;;43.33;23.30;;;8.30;99.90;;;6.09;100.00;99641.75;10444893;28;20061;-83
2023/01/08 19:55:52;;;;;;;40.20;21.67;;;8.30;99.90;;;6.09;100.00;99635.66;10444469;28;20102;-83
2023/01/08 20:00:55;;;;;;;43.77;22.63;;;8.30;99.90;;;6.06;100.00;99630.69;10459453;28;20068;-83
2023/01/08 20:05:58;;;;;;;55.20;26.73;;;8.30;99.90;;;6.04;100.00;99632.66;10432561;28;20068;-82
2023/01/08 20:11:10;;;;;;;47.23;24.03;;;8.30;99.90;;;6.02;100.00;99642.53;10477888;28;20061;-83
2023/01/08 20:16:17;;;;;;;43.27;23.13;;;8.30;99.90;;;6.01;100.00;99619.78;10455554;28;20101;-83
2023/01/08 20:21:21;;;;;;;45.47;23.20;;;8.20;99.90;;;5.99;100.00;99616.44;10467263;28;20430;-83
2023/01/08 20:26:28;;;;;;;47.87;23.70;;;8.20;99.90;;;6.02;100.00;99627.53;10473582;28;20058;-83
2023/01/08 20:31:33;;;;;;;47.03;23.13;;;8.30;99.90;;;5.97;100.00;99623.69;10430412;28;20066;-83
2023/01/08 20:36:36;;;;;;;46.87;23.30;;;8.20;99.90;;;5.98;100.00;99620.06;10478684;28;20067;-82
2023/01/08 20:41:40;;;;;;;49.23;25.03;;;8.20;99.90;;;5.97;100.00;99611.31;10440713;28;20191;-83
2023/01/08 20:46:57;;;;;;;43.43;22.60;;;8.20;99.90;;;5.95;100.00;99605.38;10471900;28;20061;-83
2023/01/08 20:52:01;;;;;;;35.67;20.30;;;8.20;99.90;;;5.89;100.00;99601.53;10416816;28;20058;-83
2023/01/08 20:57:04;;;;;;;39.63;20.93;;;8.20;99.90;;;5.88;100.00;99599.88;10404751;28;20057;-83
2023/01/08 21:02:09;;;;;;;47.80;23.67;;;8.10;99.90;;;5.86;100.00;99595.72;10407243;28;20081;-83
2023/01/08 21:07:12;;;;;;;40.93;22.43;;;8.10;99.90;;;5.78;100.00;99583.28;10479050;28;20140;-83
2023/01/08 21:12:15;;;;;;;38.83;20.47;;;8.00;99.90;;;5.73;100.00;99590.00;10452368;28;20068;-83